Time;durP1;ratioP1;P1;durP2;ratioP2;P2;SDS_P1;SDS_P2;PMS_P1;PMS_P2;Temp;Humidity;BMP_temperature;BMP_pressure;BME280_temperature;BME280_humidity;BME280_pressure;Samples;Min_cycle;Max_cycle;Signal;HPM_P1;HPM_P2
2022/06/04 00:02:27;;;;;;;;;;;14.90;99.90;;;;;;5050788;28;20398;-73
2022/06/04 00:04:59;;;;;;;;;;;14.90;99.90;;;;;;5090596;28;19925;-73
2022/06/04 00:07:31;;;;;;;;;;;14.80;99.90;;;;;;5064392;28;19935;-73
2022/06/04 00:15:48;;;;;;;;;;;14.70;99.90;;;;;;5072290;28;19937;-73
2022/06/04 00:18:21;;;;;;;;;;;14.60;99.90;;;;;;5082722;28;19970;-73
2022/06/04 00:20:53;;;;;;;;;;;14.60;99.90;;;;;;5086087;28;19928;-73
2022/06/04 00:23:21;;;;;;;;;;;14.70;99.90;;;;;;5062069;28;19935;-73
2022/06/04 00:25:54;;;;;;;;;;;14.70;99.90;;;;;;5070543;28;19928;-73
2022/06/04 00:28:26;;;;;;;;;;;14.70;99.90;;;;;;5053720;28;19941;-73
2022/06/04 00:30:58;;;;;;;;;;;14.70;99.90;;;;;;5071527;28;19925;-73
2022/06/04 00:33:30;;;;;;;;;;;14.70;99.90;;;;;;5082231;28;19924;-73
2022/06/04 00:35:57;;;;;;;;;;;14.70;99.90;;;;;;5083641;28;19929;-73
2022/06/04 00:38:30;;;;;;;;;;;14.70;99.90;;;;;;5067706;28;20103;-73
2022/06/04 00:41:20;;;;;;;;;;;14.70;99.90;;;;;;5060409;28;19931;-73
2022/06/04 00:43:58;;;;;;;;;;;14.60;99.90;;;;;;5070846;28;19928;-73
2022/06/04 00:46:41;;;;;;;;;;;14.60;99.90;;;;;;5076230;28;20372;-73
2022/06/04 00:49:14;;;;;;;;;;;14.50;99.90;;;;;;5099973;27;19924;-73
2022/06/04 00:51:48;;;;;;;;;;;14.40;99.90;;;;;;5056655;28;19930;-73
2022/06/04 00:54:20;;;;;;;;;;;14.40;99.90;;;;;;5078896;28;19929;-73
2022/06/04 00:56:51;;;;;;;;;;;14.30;99.90;;;;;;5071412;28;19928;-73
2022/06/04 00:59:24;;;;;;;;;;;14.30;99.90;;;;;;5051348;28;20411;-73
2022/06/04 01:01:59;;;;;;;;;;;14.30;99.90;;;;;;5075967;28;19924;-73
2022/06/04 01:04:47;;;;;;;;;;;14.20;99.90;;;;;;5064722;28;20405;-73
2022/06/04 01:07:19;;;;;;;;;;;14.20;99.90;;;;;;5104849;28;19924;-73
2022/06/04 01:09:57;;;;;;;;;;;14.20;99.90;;;;;;5072320;28;19924;-73
2022/06/04 01:12:51;;;;;;;;;;;14.20;99.90;;;;;;5078473;28;20006;-73
2022/06/04 01:15:36;;;;;;;;;;;14.10;99.90;;;;;;5041980;28;19924;-73
2022/06/04 01:18:07;;;;;;;;;;;14.10;99.90;;;;;;5085216;28;19924;-73
2022/06/04 01:20:51;;;;;;;;;;;14.10;99.90;;;;;;5106294;28;19967;-73
2022/06/04 01:23:32;;;;;;;;;;;14.10;99.90;;;;;;5084483;28;19924;-73
2022/06/04 01:26:22;;;;;;;;;;;14.10;99.90;;;;;;5078229;28;20296;-73
2022/06/04 01:28:56;;;;;;;;;;;14.10;99.90;;;;;;5049196;28;19924;-73
2022/06/04 01:31:27;;;;;;;;;;;14.10;99.90;;;;;;5074976;28;19931;-73
2022/06/04 01:34:00;;;;;;;;;;;14.00;99.90;;;;;;5085563;28;20019;-73
2022/06/04 01:36:55;;;;;;;;;;;14.00;99.90;;;;;;5089863;28;19924;-73
2022/06/04 01:41:03;;;;;;;;;;;14.00;99.90;;;;;;5059346;28;19930;-73
2022/06/04 01:42:15;;;;;;;;;;;14.00;99.90;;;;;;5075411;28;19950;-73
2022/06/04 01:44:43;;;;;;;;;;;14.00;99.90;;;;;;5067262;28;20392;-73
2022/06/04 01:47:15;;;;;;;;;;;14.00;99.90;;;;;;5060860;28;19925;-73
2022/06/04 01:49:50;;;;;;;;;;;14.00;99.90;;;;;;5078396;28;19924;-73
2022/06/04 01:52:29;;;;;;;;;;;14.00;99.90;;;;;;5084797;28;19924;-73
2022/06/04 01:55:04;;;;;;;;;;;14.00;99.90;;;;;;5070673;28;20422;-73
2022/06/04 01:57:36;;;;;;;;;;;13.90;99.90;;;;;;5082703;28;19928;-73
2022/06/04 02:00:13;;;;;;;;;;;14.00;99.90;;;;;;5074667;28;19928;-73
2022/06/04 02:02:48;;;;;;;;;;;13.90;99.90;;;;;;5081486;28;19934;-73
2022/06/04 02:05:23;;;;;;;;;;;13.90;99.90;;;;;;5090043;28;19935;-73
2022/06/04 02:07:55;;;;;;;;;;;13.80;99.90;;;;;;5079846;28;19928;-73
2022/06/04 02:10:30;;;;;;;;;;;13.80;99.90;;;;;;5071193;28;19930;-73
2022/06/04 02:13:04;;;;;;;;;;;13.80;99.90;;;;;;5087730;28;19924;-73
2022/06/04 02:15:43;;;;;;;;;;;13.70;99.90;;;;;;5077137;28;19930;-73
2022/06/04 02:18:10;;;;;;;;;;;13.70;99.90;;;;;;5090677;28;20369;-73
2022/06/04 02:20:37;;;;;;;;;;;13.70;99.90;;;;;;5083676;28;19931;-73
2022/06/04 02:23:09;;;;;;;;;;;13.70;99.90;;;;;;5089044;28;19928;-73
2022/06/04 02:25:41;;;;;;;;;;;13.80;99.90;;;;;;5083917;28;20027;-73
2022/06/04 02:28:07;;;;;;;;;;;13.70;99.90;;;;;;5073282;28;19928;-73
2022/06/04 02:30:48;;;;;;;;;;;13.70;99.90;;;;;;5069039;28;19925;-73
2022/06/04 02:33:20;;;;;;;;;;;13.70;99.90;;;;;;5070257;28;19930;-73
2022/06/04 02:35:56;;;;;;;;;;;13.70;99.90;;;;;;5102819;28;19934;-73
2022/06/04 02:38:46;;;;;;;;;;;13.70;99.90;;;;;;5074631;28;19934;-73
2022/06/04 02:41:21;;;;;;;;;;;13.70;99.90;;;;;;5085008;28;19924;-73
2022/06/04 02:43:53;;;;;;;;;;;13.70;99.90;;;;;;5061221;28;19928;-73
2022/06/04 02:46:26;;;;;;;;;;;13.70;99.90;;;;;;5073903;28;19928;-73
2022/06/04 02:49:05;;;;;;;;;;;13.70;99.90;;;;;;5082576;28;19924;-73
2022/06/04 02:51:42;;;;;;;;;;;13.70;99.90;;;;;;5073659;28;19924;-73
2022/06/04 02:54:18;;;;;;;;;;;13.70;99.90;;;;;;5096121;28;19924;-73
2022/06/04 02:56:46;;;;;;;;;;;13.80;99.90;;;;;;5103623;28;20411;-73
2022/06/04 02:59:19;;;;;;;;;;;13.70;99.90;;;;;;5094005;28;19925;-73
2022/06/04 03:01:52;;;;;;;;;;;13.80;99.90;;;;;;5099126;28;19935;-73
2022/06/04 03:04:24;;;;;;;;;;;13.80;99.90;;;;;;5069299;28;19928;-73
2022/06/04 03:07:03;;;;;;;;;;;13.80;99.90;;;;;;5060869;28;19931;-73
2022/06/04 03:09:38;;;;;;;;;;;13.80;99.90;;;;;;5088460;28;19935;-73
2022/06/04 03:12:09;;;;;;;;;;;13.80;99.90;;;;;;5082526;28;19924;-73
2022/06/04 03:14:41;;;;;;;;;;;13.70;99.90;;;;;;5105047;28;19963;-73
2022/06/04 03:17:13;;;;;;;;;;;13.70;99.90;;;;;;5065171;28;19928;-73
2022/06/04 03:19:45;;;;;;;;;;;13.70;99.90;;;;;;5066753;28;19934;-73
2022/06/04 03:22:17;;;;;;;;;;;13.70;99.90;;;;;;5080973;28;20407;-74
2022/06/04 03:24:49;;;;;;;;;;;13.70;99.90;;;;;;5069587;28;19981;-74
2022/06/04 03:27:21;;;;;;;;;;;13.60;99.90;;;;;;5067578;28;20035;-73
2022/06/04 03:29:52;;;;;;;;;;;13.60;99.90;;;;;;5067800;28;19924;-73
2022/06/04 03:32:24;;;;;;;;;;;13.60;99.90;;;;;;5071157;28;19964;-73
2022/06/04 03:34:56;;;;;;;;;;;13.60;99.90;;;;;;5079322;28;19925;-73
2022/06/04 03:37:27;;;;;;;;;;;13.60;99.90;;;;;;5091858;28;19925;-73
2022/06/04 03:39:59;;;;;;;;;;;13.60;99.90;;;;;;5062712;28;19928;-73
2022/06/04 03:42:31;;;;;;;;;;;13.60;99.90;;;;;;5086241;28;20788;-74
2022/06/04 03:44:57;;;;;;;;;;;13.60;99.90;;;;;;5067414;28;19931;-73
2022/06/04 03:47:25;;;;;;;;;;;13.60;99.90;;;;;;5076647;28;19929;-73
2022/06/04 03:49:57;;;;;;;;;;;13.60;99.90;;;;;;5058210;28;20014;-73
2022/06/04 03:52:28;;;;;;;;;;;13.60;99.90;;;;;;5068820;28;19960;-73
2022/06/04 03:55:01;;;;;;;;;;;13.60;99.90;;;;;;5088600;28;19931;-73
2022/06/04 04:00:13;;;;;;;;;;;13.50;99.90;;;;;;5071751;28;19924;-73
2022/06/04 04:02:49;;;;;;;;;;;13.60;99.90;;;;;;5060428;28;19935;-73
2022/06/04 04:05:17;;;;;;;;;;;13.60;99.90;;;;;;5076850;28;19981;-73
2022/06/04 04:07:49;;;;;;;;;;;13.70;99.90;;;;;;5084331;28;19928;-73
2022/06/04 04:10:22;;;;;;;;;;;13.70;99.90;;;;;;5078478;28;19929;-73
2022/06/04 04:12:53;;;;;;;;;;;13.60;99.90;;;;;;5055870;28;19948;-73
2022/06/04 04:15:25;;;;;;;;;;;13.70;99.90;;;;;;5060026;28;19928;-73
2022/06/04 04:17:57;;;;;;;;;;;13.80;99.90;;;;;;5074053;28;20015;-73
2022/06/04 04:20:29;;;;;;;;;;;13.80;99.90;;;;;;5080868;28;19924;-73
2022/06/04 04:22:56;;;;;;;;;;;13.80;99.90;;;;;;5073103;28;20391;-73
2022/06/04 04:25:29;;;;;;;;;;;13.80;99.90;;;;;;5059841;28;19924;-73
2022/06/04 04:28:01;;;;;;;;;;;13.80;99.90;;;;;;5040894;28;20407;-73
2022/06/04 04:30:33;;;;;;;;;;;13.70;99.90;;;;;;5090397;28;19934;-73
2022/06/04 04:33:00;;;;;;;;;;;13.70;99.90;;;;;;5083819;28;19924;-73
2022/06/04 04:35:32;;;;;;;;;;;13.70;99.90;;;;;;5069961;28;19930;-73
2022/06/04 04:38:04;;;;;;;;;;;13.80;99.90;;;;;;5078755;28;19924;-73
2022/06/04 04:40:36;;;;;;;;;;;13.90;99.90;;;;;;5088341;28;20386;-73
2022/06/04 04:43:08;;;;;;;;;;;13.90;99.90;;;;;;5079044;28;19932;-73
2022/06/04 04:45:34;;;;;;;;;;;14.00;99.90;;;;;;5068281;28;20007;-73
2022/06/04 04:48:06;;;;;;;;;;;14.10;99.90;;;;;;5084377;28;20554;-73
2022/06/04 04:50:39;;;;;;;;;;;14.20;99.90;;;;;;5058901;28;19924;-73
2022/06/04 04:53:11;;;;;;;;;;;14.20;99.90;;;;;;5069729;28;19934;-73
2022/06/04 04:55:47;;;;;;;;;;;14.20;99.90;;;;;;5081041;28;19928;-74
2022/06/04 04:58:13;;;;;;;;;;;14.30;99.90;;;;;;5058451;28;19924;-73
2022/06/04 05:00:41;;;;;;;;;;;14.30;99.90;;;;;;5084418;28;19924;-73
2022/06/04 05:03:13;;;;;;;;;;;14.30;99.90;;;;;;5068989;28;20465;-73
2022/06/04 05:05:39;;;;;;;;;;;14.30;99.90;;;;;;5086629;28;19924;-73
2022/06/04 05:08:11;;;;;;;;;;;14.30;99.90;;;;;;5102459;28;19928;-73
2022/06/04 05:10:43;;;;;;;;;;;14.30;99.90;;;;;;5094135;28;20002;-73
2022/06/04 05:13:15;;;;;;;;;;;14.40;99.90;;;;;;5085997;28;20400;-73
2022/06/04 05:15:43;;;;;;;;;;;14.30;99.90;;;;;;5068082;28;19931;-73
2022/06/04 05:18:15;;;;;;;;;;;14.40;99.90;;;;;;5085652;28;19935;-73
2022/06/04 05:20:41;;;;;;;;;;;14.30;99.90;;;;;;5060275;28;19932;-73
2022/06/04 05:23:13;;;;;;;;;;;14.40;99.90;;;;;;5058322;28;19928;-73
2022/06/04 05:25:45;;;;;;;;;;;14.40;99.90;;;;;;5090418;28;19970;-73
2022/06/04 05:28:16;;;;;;;;;;;14.50;99.90;;;;;;5107362;28;19931;-73
2022/06/04 05:30:48;;;;;;;;;;;14.50;99.90;;;;;;5085862;28;19924;-73
2022/06/04 05:33:20;;;;;;;;;;;14.60;99.90;;;;;;5091035;28;19931;-73
2022/06/04 05:35:51;;;;;;;;;;;14.70;99.90;;;;;;5104762;28;20328;-74
2022/06/04 05:38:24;;;;;;;;;;;14.80;99.90;;;;;;5089657;28;19931;-73
2022/06/04 05:41:00;;;;;;;;;;;14.80;99.90;;;;;;5103798;28;19928;-73
2022/06/04 05:43:32;;;;;;;;;;;14.90;99.90;;;;;;5069683;28;19958;-73
2022/06/04 05:46:06;;;;;;;;;;;15.00;99.90;;;;;;5073095;28;19931;-73
2022/06/04 05:48:39;;;;;;;;;;;15.00;99.90;;;;;;5071244;28;20411;-73
2022/06/04 05:51:12;;;;;;;;;;;15.10;99.90;;;;;;5106950;28;19934;-73
2022/06/04 05:53:43;;;;;;;;;;;15.20;99.90;;;;;;5105799;28;19924;-74
2022/06/04 05:56:18;;;;;;;;;;;15.20;99.90;;;;;;5069439;28;19931;-73
2022/06/04 05:58:46;;;;;;;;;;;15.30;99.90;;;;;;5074029;28;19977;-73
2022/06/04 06:01:17;;;;;;;;;;;15.30;99.90;;;;;;5073418;28;19924;-73
2022/06/04 06:03:49;;;;;;;;;;;15.40;99.90;;;;;;5103631;28;20304;-73
2022/06/04 06:06:17;;;;;;;;;;;15.40;99.90;;;;;;5091399;28;19924;-73
2022/06/04 06:08:49;;;;;;;;;;;15.40;99.90;;;;;;5071129;28;20393;-74
2022/06/04 06:11:22;;;;;;;;;;;15.40;99.90;;;;;;5074349;28;19981;-73
2022/06/04 06:13:53;;;;;;;;;;;15.50;99.90;;;;;;5090113;28;19924;-73
2022/06/04 06:16:27;;;;;;;;;;;15.50;99.90;;;;;;5072799;28;20026;-73
2022/06/04 06:18:59;;;;;;;;;;;15.50;99.90;;;;;;5072956;28;19928;-73
2022/06/04 06:21:32;;;;;;;;;;;15.50;99.90;;;;;;5094826;27;19928;-73
2022/06/04 06:24:04;;;;;;;;;;;15.60;99.90;;;;;;5073183;28;20406;-73
2022/06/04 06:26:44;;;;;;;;;;;15.50;99.90;;;;;;5089097;28;19947;-72
2022/06/04 06:29:17;;;;;;;;;;;15.50;99.90;;;;;;5073668;28;19924;-75
2022/06/04 06:31:48;;;;;;;;;;;15.50;99.90;;;;;;5069272;28;19928;-72
2022/06/04 06:34:21;;;;;;;;;;;15.50;99.90;;;;;;5074597;28;19924;-72
2022/06/04 06:36:52;;;;;;;;;;;15.40;99.90;;;;;;5094819;28;19932;-72
2022/06/04 06:39:24;;;;;;;;;;;15.50;99.90;;;;;;5072058;28;20011;-72
2022/06/04 06:41:58;;;;;;;;;;;15.70;99.90;;;;;;5087370;28;19924;-72
2022/06/04 06:44:44;;;;;;;;;;;15.80;99.90;;;;;;5071190;28;20346;-72
2022/06/04 06:47:15;;;;;;;;;;;16.00;99.90;;;;;;5086228;28;19935;-73
2022/06/04 06:49:47;;;;;;;;;;;16.10;99.90;;;;;;5090418;28;20333;-73
2022/06/04 06:52:20;;;;;;;;;;;16.20;99.90;;;;;;5087853;28;19930;-73
2022/06/04 06:54:47;;;;;;;;;;;16.20;99.90;;;;;;5074051;28;20519;-74
2022/06/04 06:57:16;;;;;;;;;;;16.30;99.90;;;;;;5070201;28;20372;-73
2022/06/04 06:59:48;;;;;;;;;;;16.40;99.90;;;;;;5070383;28;19931;-73
2022/06/04 07:02:20;;;;;;;;;;;16.50;99.90;;;;;;5067412;28;20420;-73
2022/06/04 07:04:52;;;;;;;;;;;16.70;99.90;;;;;;5071640;28;19938;-73
2022/06/04 07:07:24;;;;;;;;;;;16.80;99.90;;;;;;5075222;28;20014;-74
2022/06/04 07:09:51;;;;;;;;;;;17.00;99.90;;;;;;5055707;28;20296;-73
2022/06/04 07:12:23;;;;;;;;;;;17.10;99.90;;;;;;5072394;28;20511;-73
2022/06/04 07:14:55;;;;;;;;;;;17.30;99.90;;;;;;5102300;28;19982;-74
2022/06/04 07:17:28;;;;;;;;;;;17.50;99.90;;;;;;5093162;28;19924;-73
2022/06/04 07:20:00;;;;;;;;;;;17.60;99.90;;;;;;5074647;28;19928;-73
2022/06/04 07:22:27;;;;;;;;;;;17.80;99.90;;;;;;5101631;28;20299;-74
2022/06/04 07:24:55;;;;;;;;;;;17.90;99.90;;;;;;5090548;28;19946;-73
2022/06/04 07:27:22;;;;;;;;;;;18.10;99.90;;;;;;5074450;28;20538;-73
2022/06/04 07:29:53;;;;;;;;;;;18.20;99.90;;;;;;5090330;28;20327;-73
2022/06/04 07:32:25;;;;;;;;;;;18.40;99.90;;;;;;5074580;28;19928;-73
2022/06/04 07:34:57;;;;;;;;;;;18.50;99.90;;;;;;5075658;28;19928;-73
2022/06/04 07:37:29;;;;;;;;;;;18.70;99.90;;;;;;5093892;28;20390;-73
2022/06/04 07:40:01;;;;;;;;;;;18.70;99.90;;;;;;5106063;27;19935;-74
2022/06/04 07:42:33;;;;;;;;;;;18.70;99.90;;;;;;5077160;28;20300;-73
2022/06/04 07:45:02;;;;;;;;;;;18.70;99.90;;;;;;5074769;28;20417;-74
2022/06/04 07:47:34;;;;;;;;;;;18.60;99.90;;;;;;5073496;28;19924;-73
2022/06/04 07:50:01;;;;;;;;;;;18.60;99.90;;;;;;5071219;28;19928;-75
2022/06/04 07:52:28;;;;;;;;;;;18.50;99.90;;;;;;5092455;28;19924;-73
2022/06/04 07:54:55;;;;;;;;;;;18.40;99.90;;;;;;5070667;28;19946;-73
2022/06/04 07:57:22;;;;;;;;;;;18.40;99.90;;;;;;5068816;28;19931;-75
2022/06/04 07:59:49;;;;;;;;;;;18.40;99.90;;;;;;5066166;28;19925;-73
2022/06/04 08:02:24;;;;;;;;;;;18.40;99.90;;;;;;5116168;27;20042;-75
2022/06/04 08:04:56;;;;;;;;;;;18.30;99.90;;;;;;5069653;28;19935;-75
2022/06/04 08:07:28;;;;;;;;;;;18.30;99.90;;;;;;5089222;28;19942;-74
2022/06/04 08:10:00;;;;;;;;;;;18.40;99.90;;;;;;5064808;28;20027;-74
2022/06/04 08:12:34;;;;;;;;;;;18.40;99.90;;;;;;5092770;28;19928;-74
2022/06/04 08:15:06;;;;;;;;;;;18.50;99.90;;;;;;5092057;28;20323;-75
2022/06/04 08:17:38;;;;;;;;;;;18.50;99.90;;;;;;5091152;28;19924;-73
2022/06/04 08:20:10;;;;;;;;;;;18.60;99.90;;;;;;5066656;28;19925;-74
2022/06/04 08:22:42;;;;;;;;;;;18.60;99.90;;;;;;5086335;28;19950;-74
2022/06/04 08:25:14;;;;;;;;;;;18.70;99.90;;;;;;5072383;28;19932;-73
2022/06/04 08:27:45;;;;;;;;;;;18.90;99.90;;;;;;5071402;28;19930;-74
2022/06/04 08:30:17;;;;;;;;;;;19.10;99.90;;;;;;5077085;28;19934;-73
2022/06/04 08:32:44;;;;;;;;;;;19.20;99.90;;;;;;5074202;28;19935;-74
2022/06/04 08:35:16;;;;;;;;;;;19.30;99.90;;;;;;5070971;28;19928;-73
2022/06/04 08:37:48;;;;;;;;;;;19.60;99.90;;;;;;5073515;28;19935;-74
2022/06/04 08:40:40;;;;;;;;;;;19.70;99.90;;;;;;5089743;28;20328;-73
2022/06/04 08:43:30;;;;;;;;;;;19.80;99.90;;;;;;5050704;28;19924;-73
2022/06/04 08:45:58;;;;;;;;;;;19.80;99.90;;;;;;5092800;28;20476;-73
2022/06/04 08:48:31;;;;;;;;;;;19.90;99.90;;;;;;5088646;28;20395;-73
2022/06/04 08:51:06;;;;;;;;;;;19.90;99.90;;;;;;5053268;28;19936;-73
2022/06/04 08:53:38;;;;;;;;;;;20.10;99.90;;;;;;5085740;28;19959;-73
2022/06/04 08:59:14;;;;;;;;;;;20.40;99.90;;;;;;5076368;28;19946;-73
2022/06/04 09:02:00;;;;;;;;;;;20.60;99.90;;;;;;5091784;28;20385;-73
2022/06/04 09:04:52;;;;;;;;;;;20.70;99.90;;;;;;5087943;28;20588;-73
2022/06/04 09:07:31;;;;;;;;;;;20.90;99.90;;;;;;5063123;28;19924;-73
2022/06/04 09:10:15;;;;;;;;;;;21.00;99.90;;;;;;5066514;28;19935;-73
2022/06/04 09:12:49;;;;;;;;;;;21.10;99.90;;;;;;5057224;28;19971;-73
2022/06/04 09:15:29;;;;;;;;;;;21.20;99.90;;;;;;5057171;28;19931;-74
2022/06/04 09:18:04;;;;;;;;;;;21.20;99.90;;;;;;5084580;28;19934;-73
2022/06/04 09:20:41;;;;;;;;;;;21.40;99.90;;;;;;5077372;28;19923;-73
2022/06/04 09:23:27;;;;;;;;;;;21.30;99.90;;;;;;5115575;27;20044;-74
2022/06/04 09:25:53;;;;;;;;;;;21.30;99.90;;;;;;5094671;28;20288;-72
2022/06/04 09:28:45;;;;;;;;;;;21.40;99.90;;;;;;5077167;28;19924;-74
2022/06/04 09:31:26;;;;;;;;;;;21.40;99.90;;;;;;5092487;28;19924;-73
2022/06/04 09:34:02;;;;;;;;;;;21.50;99.90;;;;;;5090919;28;19924;-73
2022/06/04 09:36:34;;;;;;;;;;;21.60;99.90;;;;;;5073036;28;19924;-74
2022/06/04 09:39:17;;;;;;;;;;;21.80;99.90;;;;;;5092543;28;19932;-73
2022/06/04 09:41:54;;;;;;;;;;;22.00;99.90;;;;;;5091058;28;20015;-74
2022/06/04 09:44:27;;;;;;;;;;;22.10;99.90;;;;;;5073789;28;19928;-73
2022/06/04 09:47:04;;;;;;;;;;;22.20;99.90;;;;;;5092337;28;19995;-73
2022/06/04 09:49:53;;;;;;;;;;;22.20;99.90;;;;;;5074987;28;19932;-73
2022/06/04 09:52:25;;;;;;;;;;;22.20;99.90;;;;;;5109673;27;20399;-73
2022/06/04 09:54:59;;;;;;;;;;;22.30;99.90;;;;;;5075739;28;19963;-73
2022/06/04 09:57:32;;;;;;;;;;;22.40;99.90;;;;;;5090391;28;19954;-73
2022/06/04 10:00:17;;;;;;;;;;;22.60;99.90;;;;;;5104630;28;20022;-72
2022/06/04 10:02:52;;;;;;;;;;;22.70;99.90;;;;;;5071976;28;19924;-73
2022/06/04 10:05:20;;;;;;;;;;;22.80;99.90;;;;;;5094373;28;20452;-73
2022/06/04 10:07:51;;;;;;;;;;;22.90;99.90;;;;;;5073987;28;19931;-73
2022/06/04 10:10:33;;;;;;;;;;;22.90;99.90;;;;;;5089228;28;19935;-73
2022/06/04 10:16:32;;;;;;;;;;;23.20;99.90;;;;;;5081815;28;19932;-73
2022/06/04 10:19:14;;;;;;;;;;;23.40;99.90;;;;;;5084321;28;19929;-73
2022/06/04 10:21:47;;;;;;;;;;;23.70;99.90;;;;;;5080140;28;19928;-73
2022/06/04 10:24:18;;;;;;;;;;;23.80;99.90;;;;;;5074527;28;19924;-73
2022/06/04 10:26:50;;;;;;;;;;;24.00;99.90;;;;;;5088151;28;19928;-72
2022/06/04 10:29:35;;;;;;;;;;;24.00;99.90;;;;;;5091474;28;19950;-73
2022/06/04 10:32:22;;;;;;;;;;;24.10;99.90;;;;;;5091142;28;19924;-72
2022/06/04 10:35:00;;;;;;;;;;;24.10;99.90;;;;;;5072598;28;19928;-73
2022/06/04 10:37:51;;;;;;;;;;;24.10;99.90;;;;;;5064814;28;19930;-73
2022/06/04 10:40:41;;;;;;;;;;;24.10;99.90;;;;;;5064384;28;19924;-73
2022/06/04 10:43:26;;;;;;;;;;;24.00;99.90;;;;;;5084209;28;19930;-73
2022/06/04 10:45:57;;;;;;;;;;;24.00;99.90;;;;;;5072072;28;19924;-73
2022/06/04 10:48:29;;;;;;;;;;;24.00;99.90;;;;;;5084232;28;19932;-72
2022/06/04 10:51:33;;;;;;;;;;;24.00;99.90;;;;;;5091809;28;19947;-72
2022/06/04 10:54:15;;;;;;;;;;;24.10;99.90;;;;;;5078204;28;19935;-73
2022/06/04 10:56:44;;;;;;;;;;;24.40;99.90;;;;;;5098964;27;19927;-73
2022/06/04 10:59:19;;;;;;;;;;;24.50;99.90;;;;;;5100943;28;19931;-73
2022/06/04 11:01:54;;;;;;;;;;;24.50;99.90;;;;;;5061065;28;19928;-73
2022/06/04 11:04:46;;;;;;;;;;;24.40;99.90;;;;;;5084805;28;19930;-73
2022/06/04 11:07:27;;;;;;;;;;;24.30;99.90;;;;;;5089414;28;19929;-73
2022/06/04 11:09:59;;;;;;;;;;;24.20;99.90;;;;;;5074726;28;19931;-73
2022/06/04 11:12:51;;;;;;;;;;;24.30;99.90;;;;;;5068374;28;19924;-73
2022/06/04 11:15:20;;;;;;;;;;;24.50;99.90;;;;;;5044401;28;19950;-73
2022/06/04 11:17:48;;;;;;;;;;;24.60;99.90;;;;;;5088503;28;19945;-73
2022/06/04 11:20:22;;;;;;;;;;;24.70;99.90;;;;;;5074612;28;19925;-73
2022/06/04 11:23:16;;;;;;;;;;;24.80;99.90;;;;;;5100064;28;19924;-73
2022/06/04 11:25:49;;;;;;;;;;;24.90;99.90;;;;;;5050030;28;19936;-73
2022/06/04 11:28:23;;;;;;;;;;;25.00;99.90;;;;;;5066698;28;19928;-73
2022/06/04 11:31:01;;;;;;;;;;;25.10;99.90;;;;;;5092067;28;19928;-73
2022/06/04 11:33:46;;;;;;;;;;;25.20;99.90;;;;;;5036805;28;19946;-73
2022/06/04 11:36:19;;;;;;;;;;;25.30;99.90;;;;;;5074475;28;19925;-74
2022/06/04 11:39:10;;;;;;;;;;;25.50;99.90;;;;;;5071515;28;19925;-72
2022/06/04 11:41:55;;;;;;;;;;;25.70;99.90;;;;;;5092621;28;19924;-72
2022/06/04 11:44:46;;;;;;;;;;;25.90;99.90;;;;;;5072498;28;19931;-73
2022/06/04 11:47:36;;;;;;;;;;;25.90;99.90;;;;;;5079940;28;19928;-73
2022/06/04 11:50:17;;;;;;;;;;;25.70;99.90;;;;;;5073477;28;19928;-73
2022/06/04 11:52:59;;;;;;;;;;;25.70;99.90;;;;;;5063123;28;20042;-73
2022/06/04 11:55:54;;;;;;;;;;;25.70;99.90;;;;;;5076096;28;19931;-73
2022/06/04 11:58:58;;;;;;;;;;;25.90;99.90;;;;;;5062903;28;19924;-73
2022/06/04 12:01:41;;;;;;;;;;;26.10;99.90;;;;;;5030853;28;20408;-73
2022/06/04 12:04:27;;;;;;;;;;;26.20;99.90;;;;;;5092309;28;19923;-73
2022/06/04 12:07:05;;;;;;;;;;;26.30;99.90;;;;;;5074453;28;19924;-73
2022/06/04 12:09:40;;;;;;;;;;;26.30;99.90;;;;;;5081073;28;19932;-73
2022/06/04 12:12:18;;;;;;;;;;;26.40;99.90;;;;;;5057313;28;19935;-74
2022/06/04 12:14:59;;;;;;;;;;;26.60;99.90;;;;;;5074899;28;19928;-73
2022/06/04 12:17:43;;;;;;;;;;;26.70;99.90;;;;;;5077617;28;20281;-73
2022/06/04 12:26:23;;;;;;;;;;;26.60;99.90;;;;;;5075306;28;19963;-74
2022/06/04 12:28:50;;;;;;;;;;;26.80;99.90;;;;;;5082076;28;20639;-73
2022/06/04 12:31:29;;;;;;;;;;;27.00;99.90;;;;;;5094085;28;19928;-73
2022/06/04 12:34:02;;;;;;;;;;;27.00;99.90;;;;;;5084849;28;20288;-73
2022/06/04 12:36:36;;;;;;;;;;;27.00;99.90;;;;;;5094913;28;20365;-73
2022/06/04 12:39:27;;;;;;;;;;;27.10;99.90;;;;;;5107202;28;20388;-74
2022/06/04 12:42:00;;;;;;;;;;;27.20;99.90;;;;;;5078398;28;19928;-73
2022/06/04 12:44:33;;;;;;;;;;;27.10;99.90;;;;;;5071397;28;19924;-73
2022/06/04 12:47:29;;;;;;;;;;;26.90;99.90;;;;;;5075366;28;19924;-73
2022/06/04 12:50:04;;;;;;;;;;;26.70;99.90;;;;;;5058960;28;19925;-73
2022/06/04 12:52:47;;;;;;;;;;;26.70;99.90;;;;;;5079613;28;19929;-73
2022/06/04 12:55:45;;;;;;;;;;;26.50;99.90;;;;;;5086610;28;20031;-73
2022/06/04 12:58:23;;;;;;;;;;;26.60;99.90;;;;;;5081866;28;19986;-73
2022/06/04 13:00:57;;;;;;;;;;;26.80;99.90;;;;;;5084278;28;20123;-73
2022/06/04 13:03:51;;;;;;;;;;;26.70;99.90;;;;;;5081844;28;19947;-72
2022/06/04 13:06:26;;;;;;;;;;;26.70;99.90;;;;;;5077010;28;19924;-73
2022/06/04 13:09:06;;;;;;;;;;;26.70;99.90;;;;;;5085402;28;19928;-73
2022/06/04 13:11:39;;;;;;;;;;;26.90;99.90;;;;;;5071931;28;20419;-73
2022/06/04 13:14:13;;;;;;;;;;;27.10;99.90;;;;;;5080873;28;19929;-73
2022/06/04 13:16:51;;;;;;;;;;;27.30;99.90;;;;;;5078643;28;19928;-73
2022/06/04 13:19:41;;;;;;;;;;;27.60;99.90;;;;;;5089857;28;19924;-73
2022/06/04 13:22:39;;;;;;;;;;;27.50;99.90;;;;;;5083536;28;19925;-73
2022/06/04 13:25:14;;;;;;;;;;;27.20;99.90;;;;;;5068603;28;19928;-73
2022/06/04 13:27:55;;;;;;;;;;;27.00;99.90;;;;;;5081216;28;19955;-73
2022/06/04 13:30:27;;;;;;;;;;;27.00;99.90;;;;;;5100218;28;19924;-73
2022/06/04 13:33:07;;;;;;;;;;;27.20;99.90;;;;;;5091680;28;19924;-72
2022/06/04 13:35:43;;;;;;;;;;;27.20;99.90;;;;;;5055938;28;19924;-73
2022/06/04 13:38:27;;;;;;;;;;;27.10;99.90;;;;;;5080506;28;20304;-73
2022/06/04 13:41:00;;;;;;;;;;;27.20;99.90;;;;;;5067928;28;19928;-73
2022/06/04 13:43:38;;;;;;;;;;;27.50;99.90;;;;;;5078918;28;20660;-72
2022/06/04 13:46:15;;;;;;;;;;;27.80;99.90;;;;;;5093197;28;19928;-73
2022/06/04 13:48:50;;;;;;;;;;;28.00;99.90;;;;;;5064770;28;20312;-73
2022/06/04 13:51:18;;;;;;;;;;;27.90;99.90;;;;;;5074640;28;19924;-74
2022/06/04 13:53:53;;;;;;;;;;;27.70;99.90;;;;;;5065845;28;19924;-73
2022/06/04 13:56:28;;;;;;;;;;;27.70;99.90;;;;;;5070891;28;19935;-73
2022/06/04 13:58:59;;;;;;;;;;;27.80;99.90;;;;;;5064244;28;19935;-73
2022/06/04 14:01:32;;;;;;;;;;;27.80;99.90;;;;;;5080282;28;19924;-73
2022/06/04 14:07:10;;;;;;;;;;;28.40;99.90;;;;;;5086602;28;19924;-73
2022/06/04 14:09:52;;;;;;;;;;;28.90;99.90;;;;;;5072590;28;19924;-73
2022/06/04 14:12:31;;;;;;;;;;;28.70;99.90;;;;;;5070609;28;19934;-73
2022/06/04 14:15:11;;;;;;;;;;;28.80;99.90;;;;;;5071454;28;19934;-73
2022/06/04 14:17:46;;;;;;;;;;;28.90;99.90;;;;;;5066189;28;20023;-73
2022/06/04 14:20:24;;;;;;;;;;;29.10;99.90;;;;;;5084585;28;19928;-73
2022/06/04 14:23:15;;;;;;;;;;;29.20;99.90;;;;;;5067363;28;20365;-73
2022/06/04 14:25:51;;;;;;;;;;;29.10;99.90;;;;;;5072197;28;19924;-72
2022/06/04 14:28:42;;;;;;;;;;;28.70;99.90;;;;;;5083320;28;20308;-72
2022/06/04 14:31:16;;;;;;;;;;;28.50;99.90;;;;;;5073220;28;19932;-73
2022/06/04 14:33:48;;;;;;;;;;;28.20;99.90;;;;;;5078652;28;19931;-73
2022/06/04 14:36:21;;;;;;;;;;;28.30;99.90;;;;;;5074282;28;19931;-73
2022/06/04 14:38:53;;;;;;;;;;;28.30;99.90;;;;;;5094830;28;19928;-73
2022/06/04 14:41:47;;;;;;;;;;;28.40;99.90;;;;;;5072407;28;19932;-73
2022/06/04 14:44:13;;;;;;;;;;;28.50;99.90;;;;;;5071367;28;20377;-72
2022/06/04 14:47:03;;;;;;;;;;;28.60;99.90;;;;;;5077294;28;20415;-73
2022/06/04 14:49:58;;;;;;;;;;;28.90;99.90;;;;;;5081594;28;19928;-73
2022/06/04 14:52:37;;;;;;;;;;;28.70;99.90;;;;;;5053450;28;19925;-73
2022/06/04 14:55:19;;;;;;;;;;;28.80;99.90;;;;;;5074776;28;19967;-73
2022/06/04 14:57:53;;;;;;;;;;;28.80;99.90;;;;;;5080824;28;19924;-73
2022/06/04 15:00:42;;;;;;;;;;;28.60;99.90;;;;;;5068584;28;20315;-73
2022/06/04 15:03:25;;;;;;;;;;;28.40;99.90;;;;;;5079103;28;19924;-73
2022/06/04 15:05:59;;;;;;;;;;;28.10;99.90;;;;;;5080759;28;19935;-73
2022/06/04 15:08:40;;;;;;;;;;;27.90;99.90;;;;;;5082855;28;19930;-74
2022/06/04 15:11:22;;;;;;;;;;;27.70;99.90;;;;;;5073765;28;19924;-73
2022/06/04 15:14:16;;;;;;;;;;;27.50;99.90;;;;;;5081691;28;19943;-73
2022/06/04 15:17:02;;;;;;;;;;;27.80;99.90;;;;;;5075963;28;19930;-73
2022/06/04 15:19:37;;;;;;;;;;;28.40;99.90;;;;;;5082373;28;20057;-73
2022/06/04 15:22:27;;;;;;;;;;;29.10;99.90;;;;;;5075886;28;19951;-72
2022/06/04 15:24:57;;;;;;;;;;;29.70;99.60;;;;;;5067063;28;20011;-73
2022/06/04 15:27:35;;;;;;;;;;;30.20;99.30;;;;;;5072620;28;20405;-72
2022/06/04 15:36:20;;;;;;;;;;;31.10;96.90;;;;;;5082636;28;19935;-72